sensor_id;sensor_type;location;lat;lon;timestamp;pressure;altitude;pressure_sealevel;temperature;humidity
15263;BME280;7733;51.554;13.590;2022-09-09T00:00:53;100029.84;;;16.98;100.00
15263;BME280;7733;51.554;13.590;2022-09-09T00:03:27;100027.34;;;16.95;100.00
15263;BME280;7733;51.554;13.590;2022-09-09T00:09:17;100039.09;;;16.90;100.00
15263;BME280;7733;51.554;13.590;2022-09-09T00:11:52;100037.22;;;16.92;100.00
15263;BME280;7733;51.554;13.590;2022-09-09T00:17:47;100034.00;;;16.85;100.00
15263;BME280;7733;51.554;13.590;2022-09-09T00:21:01;100034.63;;;16.51;100.00
15263;BME280;7733;51.554;13.590;2022-09-09T00:23:38;100035.00;;;16.62;100.00
15263;BME280;7733;51.554;13.590;2022-09-09T00:32:17;100024.59;;;16.58;100.00
15263;BME280;7733;51.554;13.590;2022-09-09T00:34:54;100026.66;;;16.71;100.00
15263;BME280;7733;51.554;13.590;2022-09-09T00:37:23;100031.13;;;16.71;100.00
15263;BME280;7733;51.554;13.590;2022-09-09T00:39:55;100033.94;;;16.87;100.00
15263;BME280;7733;51.554;13.590;2022-09-09T00:42:42;100030.44;;;16.86;100.00
15263;BME280;7733;51.554;13.590;2022-09-09T00:45:57;100029.97;;;16.77;100.00
15263;BME280;7733;51.554;13.590;2022-09-09T00:48:35;100034.25;;;16.59;100.00
15263;BME280;7733;51.554;13.590;2022-09-09T00:51:25;100031.63;;;16.59;100.00
15263;BME280;7733;51.554;13.590;2022-09-09T00:54:45;100038.31;;;16.47;100.00
15263;BME280;7733;51.554;13.590;2022-09-09T00:57:26;100027.25;;;16.37;100.00
15263;BME280;7733;51.554;13.590;2022-09-09T01:00:24;100037.00;;;16.17;100.00
15263;BME280;7733;51.554;13.590;2022-09-09T01:06:30;100030.63;;;16.21;100.00
15263;BME280;7733;51.554;13.590;2022-09-09T01:09:25;100033.69;;;16.11;100.00
15263;BME280;7733;51.554;13.590;2022-09-09T01:12:16;100032.63;;;16.16;100.00
15263;BME280;7733;51.554;13.590;2022-09-09T01:14:48;100025.75;;;16.11;100.00
15263;BME280;7733;51.554;13.590;2022-09-09T01:17:30;100031.03;;;16.32;100.00
15263;BME280;7733;51.554;13.590;2022-09-09T01:20:21;100037.66;;;16.22;100.00
15263;BME280;7733;51.554;13.590;2022-09-09T01:23:20;100037.41;;;16.48;100.00
15263;BME280;7733;51.554;13.590;2022-09-09T01:26:21;100035.03;;;16.42;100.00
15263;BME280;7733;51.554;13.590;2022-09-09T01:28:50;100034.63;;;16.31;100.00
15263;BME280;7733;51.554;13.590;2022-09-09T01:31:53;100034.63;;;16.10;100.00
15263;BME280;7733;51.554;13.590;2022-09-09T01:34:20;100027.00;;;16.03;100.00
15263;BME280;7733;51.554;13.590;2022-09-09T01:37:01;100037.38;;;15.87;100.00
15263;BME280;7733;51.554;13.590;2022-09-09T01:39:28;100021.84;;;15.56;100.00
15263;BME280;7733;51.554;13.590;2022-09-09T01:41:55;100036.97;;;15.96;100.00
15263;BME280;7733;51.554;13.590;2022-09-09T01:44:22;100034.88;;;16.04;100.00
15263;BME280;7733;51.554;13.590;2022-09-09T01:46:48;100044.03;;;15.96;100.00
15263;BME280;7733;51.554;13.590;2022-09-09T01:49:13;100034.31;;;15.96;100.00
15263;BME280;7733;51.554;13.590;2022-09-09T01:51:42;100044.97;;;15.95;100.00
15263;BME280;7733;51.554;13.590;2022-09-09T01:54:08;100043.19;;;15.95;100.00
15263;BME280;7733;51.554;13.590;2022-09-09T01:57:11;100036.91;;;15.98;100.00
15263;BME280;7733;51.554;13.590;2022-09-09T02:05:36;100034.53;;;15.92;100.00
15263;BME280;7733;51.554;13.590;2022-09-09T02:08:21;100041.88;;;16.05;100.00
15263;BME280;7733;51.554;13.590;2022-09-09T02:11:06;100037.81;;;15.97;100.00
15263;BME280;7733;51.554;13.590;2022-09-09T02:13:37;100038.69;;;15.97;100.00
15263;BME280;7733;51.554;13.590;2022-09-09T02:16:16;100045.03;;;15.93;100.00
15263;BME280;7733;51.554;13.590;2022-09-09T02:19:17;100041.19;;;16.00;100.00
15263;BME280;7733;51.554;13.590;2022-09-09T02:21:49;100035.31;;;15.94;100.00
15263;BME280;7733;51.554;13.590;2022-09-09T02:24:16;100043.72;;;15.83;100.00
15263;BME280;7733;51.554;13.590;2022-09-09T02:26:45;100042.00;;;15.82;100.00
15263;BME280;7733;51.554;13.590;2022-09-09T02:29:19;100046.59;;;15.77;100.00
15263;BME280;7733;51.554;13.590;2022-09-09T02:31:49;100049.34;;;15.74;100.00
15263;BME280;7733;51.554;13.590;2022-09-09T02:34:20;100049.94;;;15.82;100.00
15263;BME280;7733;51.554;13.590;2022-09-09T02:36:48;100048.88;;;15.86;100.00
15263;BME280;7733;51.554;13.590;2022-09-09T02:39:15;100037.50;;;15.84;100.00
15263;BME280;7733;51.554;13.590;2022-09-09T02:41:42;100040.31;;;15.79;100.00
15263;BME280;7733;51.554;13.590;2022-09-09T02:44:17;100045.22;;;15.89;100.00
15263;BME280;7733;51.554;13.590;2022-09-09T02:47:10;100042.47;;;15.92;100.00
15263;BME280;7733;51.554;13.590;2022-09-09T02:50:34;100048.94;;;15.85;100.00
15263;BME280;7733;51.554;13.590;2022-09-09T02:53:21;100048.94;;;15.63;100.00
15263;BME280;7733;51.554;13.590;2022-09-09T02:56:04;100059.13;;;15.72;100.00
15263;BME280;7733;51.554;13.590;2022-09-09T02:58:31;100050.84;;;15.58;100.00
15263;BME280;7733;51.554;13.590;2022-09-09T03:00:57;100055.09;;;15.63;100.00
15263;BME280;7733;51.554;13.590;2022-09-09T03:03:24;100053.09;;;15.46;100.00
15263;BME280;7733;51.554;13.590;2022-09-09T03:05:50;100058.00;;;15.56;100.00
15263;BME280;7733;51.554;13.590;2022-09-09T03:08:18;100069.63;;;15.51;100.00
15263;BME280;7733;51.554;13.590;2022-09-09T03:10:44;100066.00;;;15.54;100.00
15263;BME280;7733;51.554;13.590;2022-09-09T03:13:10;100064.06;;;15.36;100.00
15263;BME280;7733;51.554;13.590;2022-09-09T03:15:36;100071.72;;;15.43;100.00
15263;BME280;7733;51.554;13.590;2022-09-09T03:18:02;100067.91;;;15.50;100.00
15263;BME280;7733;51.554;13.590;2022-09-09T03:20:30;100061.06;;;15.45;100.00
15263;BME280;7733;51.554;13.590;2022-09-09T03:22:57;100060.31;;;15.41;100.00
15263;BME280;7733;51.554;13.590;2022-09-09T03:25:24;100066.44;;;15.20;100.00
15263;BME280;7733;51.554;13.590;2022-09-09T03:27:53;100059.09;;;15.28;100.00
15263;BME280;7733;51.554;13.590;2022-09-09T03:30:21;100028.53;;;14.98;100.00
15263;BME280;7733;51.554;13.590;2022-09-09T03:32:47;100067.81;;;15.30;100.00
15263;BME280;7733;51.554;13.590;2022-09-09T03:35:14;100063.34;;;15.09;100.00
15263;BME280;7733;51.554;13.590;2022-09-09T03:37:40;100065.19;;;15.07;100.00
15263;BME280;7733;51.554;13.590;2022-09-09T03:40:07;100062.19;;;15.16;100.00
15263;BME280;7733;51.554;13.590;2022-09-09T03:42:35;100060.28;;;15.19;100.00
15263;BME280;7733;51.554;13.590;2022-09-09T03:45:04;100056.56;;;15.25;100.00
15263;BME280;7733;51.554;13.590;2022-09-09T03:47:30;100061.13;;;15.20;100.00
15263;BME280;7733;51.554;13.590;2022-09-09T03:49:55;100056.41;;;15.06;100.00
15263;BME280;7733;51.554;13.590;2022-09-09T03:52:21;100060.75;;;15.07;100.00
15263;BME280;7733;51.554;13.590;2022-09-09T03:54:50;100050.81;;;15.14;100.00
15263;BME280;7733;51.554;13.590;2022-09-09T03:57:17;100054.72;;;15.27;100.00
15263;BME280;7733;51.554;13.590;2022-09-09T03:59:43;100050.81;;;15.14;100.00
15263;BME280;7733;51.554;13.590;2022-09-09T04:02:09;100054.91;;;15.23;100.00
15263;BME280;7733;51.554;13.590;2022-09-09T04:04:35;100054.56;;;15.08;100.00
15263;BME280;7733;51.554;13.590;2022-09-09T04:07:00;100055.53;;;15.06;100.00
15263;BME280;7733;51.554;13.590;2022-09-09T04:09:26;100054.50;;;15.10;100.00
15263;BME280;7733;51.554;13.590;2022-09-09T04:11:52;100056.97;;;15.14;100.00
15263;BME280;7733;51.554;13.590;2022-09-09T04:14:19;100057.25;;;14.83;100.00
15263;BME280;7733;51.554;13.590;2022-09-09T04:16:45;100062.44;;;14.86;100.00
15263;BME280;7733;51.554;13.590;2022-09-09T04:19:12;100057.38;;;15.04;100.00
15263;BME280;7733;51.554;13.590;2022-09-09T04:21:40;100062.44;;;15.10;100.00
15263;BME280;7733;51.554;13.590;2022-09-09T04:24:08;100060.16;;;14.99;100.00
15263;BME280;7733;51.554;13.590;2022-09-09T04:26:35;100065.88;;;14.88;100.00
15263;BME280;7733;51.554;13.590;2022-09-09T04:29:03;100059.25;;;15.00;100.00
15263;BME280;7733;51.554;13.590;2022-09-09T04:31:29;100057.44;;;15.02;100.00
15263;BME280;7733;51.554;13.590;2022-09-09T04:33:55;100064.38;;;15.05;100.00
15263;BME280;7733;51.554;13.590;2022-09-09T04:36:21;100067.47;;;14.93;100.00
15263;BME280;7733;51.554;13.590;2022-09-09T04:38:47;100067.03;;;14.80;100.00
15263;BME280;7733;51.554;13.590;2022-09-09T04:41:14;100069.50;;;15.09;100.00
15263;BME280;7733;51.554;13.590;2022-09-09T04:43:42;100065.38;;;15.01;100.00
15263;BME280;7733;51.554;13.590;2022-09-09T04:46:08;100062.25;;;15.14;100.00
15263;BME280;7733;51.554;13.590;2022-09-09T04:48:35;100061.25;;;15.17;100.00
15263;BME280;7733;51.554;13.590;2022-09-09T04:51:04;100061.94;;;14.99;100.00
15263;BME280;7733;51.554;13.590;2022-09-09T04:53:30;100064.94;;;15.13;100.00
15263;BME280;7733;51.554;13.590;2022-09-09T04:56:22;100061.88;;;15.02;100.00
15263;BME280;7733;51.554;13.590;2022-09-09T04:58:48;100066.09;;;15.29;100.00
15263;BME280;7733;51.554;13.590;2022-09-09T05:01:18;100067.94;;;15.04;100.00
15263;BME280;7733;51.554;13.590;2022-09-09T05:03:44;100063.66;;;15.00;100.00
15263;BME280;7733;51.554;13.590;2022-09-09T05:06:21;100072.06;;;14.87;100.00
15263;BME280;7733;51.554;13.590;2022-09-09T05:08:47;100079.78;;;14.69;100.00
15263;BME280;7733;51.554;13.590;2022-09-09T05:11:22;100080.19;;;14.81;100.00
15263;BME280;7733;51.554;13.590;2022-09-09T05:13:52;100078.91;;;14.93;100.00
15263;BME280;7733;51.554;13.590;2022-09-09T05:16:19;100072.31;;;14.80;100.00
15263;BME280;7733;51.554;13.590;2022-09-09T05:18:46;100074.16;;;15.03;100.00
15263;BME280;7733;51.554;13.590;2022-09-09T05:21:14;100071.75;;;14.72;100.00
15263;BME280;7733;51.554;13.590;2022-09-09T05:23:40;100084.19;;;14.93;100.00
15263;BME280;7733;51.554;13.590;2022-09-09T05:26:11;100074.91;;;15.06;100.00
15263;BME280;7733;51.554;13.590;2022-09-09T05:28:37;100080.78;;;15.13;100.00
15263;BME280;7733;51.554;13.590;2022-09-09T05:31:06;100077.91;;;15.19;100.00
15263;BME280;7733;51.554;13.590;2022-09-09T05:33:39;100076.50;;;15.10;100.00
15263;BME280;7733;51.554;13.590;2022-09-09T05:36:18;100085.63;;;15.25;100.00
15263;BME280;7733;51.554;13.590;2022-09-09T05:38:44;100074.81;;;15.31;100.00
15263;BME280;7733;51.554;13.590;2022-09-09T05:41:12;100084.09;;;15.41;100.00
15263;BME280;7733;51.554;13.590;2022-09-09T05:43:38;100082.63;;;15.34;100.00
15263;BME280;7733;51.554;13.590;2022-09-09T05:48:38;100083.53;;;15.33;100.00
15263;BME280;7733;51.554;13.590;2022-09-09T05:51:07;100084.56;;;15.52;100.00
15263;BME280;7733;51.554;13.590;2022-09-09T05:53:34;100082.94;;;15.27;100.00
15263;BME280;7733;51.554;13.590;2022-09-09T05:56:06;100089.34;;;15.43;100.00
15263;BME280;7733;51.554;13.590;2022-09-09T05:58:34;100086.16;;;15.57;100.00
15263;BME280;7733;51.554;13.590;2022-09-09T06:01:08;100090.25;;;15.65;100.00
15263;BME280;7733;51.554;13.590;2022-09-09T06:03:37;100090.47;;;15.59;100.00
15263;BME280;7733;51.554;13.590;2022-09-09T06:06:07;100094.56;;;15.68;100.00
15263;BME280;7733;51.554;13.590;2022-09-09T06:08:38;100097.75;;;15.76;100.00
15263;BME280;7733;51.554;13.590;2022-09-09T06:11:08;100093.69;;;15.89;100.00
15263;BME280;7733;51.554;13.590;2022-09-09T06:13:35;100091.66;;;15.96;100.00
15263;BME280;7733;51.554;13.590;2022-09-09T06:16:11;100086.06;;;16.03;100.00
15263;BME280;7733;51.554;13.590;2022-09-09T06:18:38;100094.28;;;16.18;100.00
15263;BME280;7733;51.554;13.590;2022-09-09T06:21:07;100105.66;;;16.20;100.00
15263;BME280;7733;51.554;13.590;2022-09-09T06:23:34;100099.44;;;16.21;100.00
15263;BME280;7733;51.554;13.590;2022-09-09T06:26:10;100089.94;;;16.37;100.00
15263;BME280;7733;51.554;13.590;2022-09-09T06:28:37;100089.94;;;16.57;100.00
15263;BME280;7733;51.554;13.590;2022-09-09T06:31:08;100095.53;;;16.71;100.00
15263;BME280;7733;51.554;13.590;2022-09-09T06:33:40;100089.97;;;16.78;100.00
15263;BME280;7733;51.554;13.590;2022-09-09T06:36:19;100093.66;;;16.94;100.00
15263;BME280;7733;51.554;13.590;2022-09-09T06:38:45;100097.53;;;16.87;100.00
15263;BME280;7733;51.554;13.590;2022-09-09T06:41:14;100103.03;;;16.82;100.00
15263;BME280;7733;51.554;13.590;2022-09-09T06:43:40;100099.63;;;16.79;100.00
15263;BME280;7733;51.554;13.590;2022-09-09T06:46:11;100109.41;;;16.97;100.00
15263;BME280;7733;51.554;13.590;2022-09-09T06:48:39;100099.06;;;17.11;100.00
15263;BME280;7733;51.554;13.590;2022-09-09T06:51:14;100097.50;;;17.26;100.00
15263;BME280;7733;51.554;13.590;2022-09-09T06:53:42;100108.38;;;17.20;100.00
15263;BME280;7733;51.554;13.590;2022-09-09T06:56:34;100101.03;;;17.45;100.00
15263;BME280;7733;51.554;13.590;2022-09-09T06:59:05;100100.94;;;17.47;100.00
15263;BME280;7733;51.554;13.590;2022-09-09T07:01:39;100109.16;;;17.59;100.00
15263;BME280;7733;51.554;13.590;2022-09-09T07:04:16;100100.88;;;17.67;100.00
15263;BME280;7733;51.554;13.590;2022-09-09T07:06:45;100101.16;;;17.80;100.00
15263;BME280;7733;51.554;13.590;2022-09-09T07:09:14;100080.00;;;17.78;100.00
15263;BME280;7733;51.554;13.590;2022-09-09T07:11:47;100093.16;;;17.99;100.00
15263;BME280;7733;51.554;13.590;2022-09-09T07:14:14;100098.84;;;17.91;100.00
15263;BME280;7733;51.554;13.590;2022-09-09T07:16:42;100099.13;;;18.04;100.00
15263;BME280;7733;51.554;13.590;2022-09-09T07:19:08;100083.03;;;18.07;100.00
15263;BME280;7733;51.554;13.590;2022-09-09T07:21:34;100100.38;;;18.14;100.00
15263;BME280;7733;51.554;13.590;2022-09-09T07:24:00;100097.88;;;18.11;100.00
15263;BME280;7733;51.554;13.590;2022-09-09T07:26:30;100097.16;;;18.42;100.00
15263;BME280;7733;51.554;13.590;2022-09-09T07:28:56;100095.84;;;18.33;100.00
15263;BME280;7733;51.554;13.590;2022-09-09T07:31:32;100098.50;;;18.50;100.00
15263;BME280;7733;51.554;13.590;2022-09-09T07:34:00;100102.31;;;18.64;100.00
15263;BME280;7733;51.554;13.590;2022-09-09T07:36:35;100101.50;;;18.44;100.00
15263;BME280;7733;51.554;13.590;2022-09-09T07:39:07;100098.75;;;18.46;100.00
15263;BME280;7733;51.554;13.590;2022-09-09T07:41:40;100106.00;;;18.94;100.00
15263;BME280;7733;51.554;13.590;2022-09-09T07:44:09;100102.06;;;19.01;100.00
15263;BME280;7733;51.554;13.590;2022-09-09T07:46:37;100109.41;;;18.96;100.00
15263;BME280;7733;51.554;13.590;2022-09-09T07:49:04;100104.50;;;19.22;100.00
15263;BME280;7733;51.554;13.590;2022-09-09T07:51:36;100111.78;;;19.18;100.00
15263;BME280;7733;51.554;13.590;2022-09-09T07:54:09;100106.16;;;19.40;100.00
15263;BME280;7733;51.554;13.590;2022-09-09T07:56:38;100114.81;;;19.28;100.00
15263;BME280;7733;51.554;13.590;2022-09-09T07:59:03;100117.56;;;19.42;99.17
15263;BME280;7733;51.554;13.590;2022-09-09T08:01:44;100113.81;;;19.30;100.00
15263;BME280;7733;51.554;13.590;2022-09-09T08:04:20;100121.31;;;19.06;99.04
15263;BME280;7733;51.554;13.590;2022-09-09T08:06:52;100116.19;;;19.35;98.75
15263;BME280;7733;51.554;13.590;2022-09-09T08:09:19;100120.94;;;19.45;100.00
15263;BME280;7733;51.554;13.590;2022-09-09T08:11:46;100120.78;;;19.49;99.39
15263;BME280;7733;51.554;13.590;2022-09-09T08:14:13;100124.34;;;19.65;98.90
15263;BME280;7733;51.554;13.590;2022-09-09T08:16:44;100124.69;;;19.74;97.35
15263;BME280;7733;51.554;13.590;2022-09-09T08:19:10;100121.25;;;20.04;97.79
15263;BME280;7733;51.554;13.590;2022-09-09T08:21:39;100113.16;;;20.05;95.36
15263;BME280;7733;51.554;13.590;2022-09-09T08:24:07;100119.53;;;20.03;94.96
15263;BME280;7733;51.554;13.590;2022-09-09T08:26:40;100125.75;;;20.02;92.48
15263;BME280;7733;51.554;13.590;2022-09-09T08:29:09;100123.13;;;19.86;95.88
15263;BME280;7733;51.554;13.590;2022-09-09T08:31:51;100129.72;;;19.95;94.11
15263;BME280;7733;51.554;13.590;2022-09-09T08:34:18;100133.25;;;20.11;93.64
15263;BME280;7733;51.554;13.590;2022-09-09T08:36:48;100128.59;;;19.99;95.73
15263;BME280;7733;51.554;13.590;2022-09-09T08:39:18;100124.31;;;20.12;93.69
15263;BME280;7733;51.554;13.590;2022-09-09T08:50:13;100119.81;;;20.44;93.20
15263;BME280;7733;51.554;13.590;2022-09-09T08:53:01;100119.06;;;20.56;95.08
15263;BME280;7733;51.554;13.590;2022-09-09T08:55:48;100124.72;;;20.80;93.41
15263;BME280;7733;51.554;13.590;2022-09-09T09:04:01;100119.16;;;21.42;89.44
15263;BME280;7733;51.554;13.590;2022-09-09T09:09:36;100117.47;;;21.82;89.40
15263;BME280;7733;51.554;13.590;2022-09-09T09:12:23;100115.50;;;21.98;89.10
15263;BME280;7733;51.554;13.590;2022-09-09T09:14:49;100114.31;;;21.90;86.31
15263;BME280;7733;51.554;13.590;2022-09-09T09:17:20;100109.63;;;21.93;87.13
15263;BME280;7733;51.554;13.590;2022-09-09T09:19:48;100122.22;;;21.91;84.45
15263;BME280;7733;51.554;13.590;2022-09-09T09:22:50;100125.38;;;21.28;86.24
15263;BME280;7733;51.554;13.590;2022-09-09T09:25:34;100119.41;;;20.94;87.79
15263;BME280;7733;51.554;13.590;2022-09-09T09:28:16;100105.91;;;20.83;88.32
15263;BME280;7733;51.554;13.590;2022-09-09T09:30:59;100122.41;;;21.47;87.62
15263;BME280;7733;51.554;13.590;2022-09-09T09:33:50;100128.22;;;21.39;87.83
15263;BME280;7733;51.554;13.590;2022-09-09T09:36:19;100125.94;;;21.05;89.42
15263;BME280;7733;51.554;13.590;2022-09-09T09:38:55;100130.28;;;21.20;89.89
15263;BME280;7733;51.554;13.590;2022-09-09T09:41:34;100132.13;;;21.05;90.97
15263;BME280;7733;51.554;13.590;2022-09-09T09:44:02;100130.78;;;20.38;91.20
15263;BME280;7733;51.554;13.590;2022-09-09T09:46:28;100128.56;;;20.90;92.90
15263;BME280;7733;51.554;13.590;2022-09-09T09:49:02;100133.66;;;20.65;92.89
15263;BME280;7733;51.554;13.590;2022-09-09T09:51:33;100132.06;;;20.77;92.36
15263;BME280;7733;51.554;13.590;2022-09-09T09:54:15;100132.66;;;20.52;93.63
15263;BME280;7733;51.554;13.590;2022-09-09T09:56:45;100134.34;;;20.23;92.59
15263;BME280;7733;51.554;13.590;2022-09-09T09:59:32;100141.34;;;20.40;92.93
15263;BME280;7733;51.554;13.590;2022-09-09T10:04:44;100125.06;;;20.46;91.91
15263;BME280;7733;51.554;13.590;2022-09-09T10:07:21;100125.25;;;20.57;92.59
15263;BME280;7733;51.554;13.590;2022-09-09T10:09:56;100133.56;;;20.67;91.49
15263;BME280;7733;51.554;13.590;2022-09-09T10:12:48;100130.56;;;21.01;91.74
15263;BME280;7733;51.554;13.590;2022-09-09T10:15:59;100130.88;;;21.11;91.04
15263;BME280;7733;51.554;13.590;2022-09-09T10:21:52;100137.53;;;20.89;90.21
15263;BME280;7733;51.554;13.590;2022-09-09T10:28:31;100128.72;;;20.73;90.41
15263;BME280;7733;51.554;13.590;2022-09-09T10:31:43;100129.06;;;21.54;90.02
15263;BME280;7733;51.554;13.590;2022-09-09T10:36:51;100129.06;;;21.95;89.04
15263;BME280;7733;51.554;13.590;2022-09-09T10:39:37;100123.63;;;21.97;85.06
15263;BME280;7733;51.554;13.590;2022-09-09T10:42:16;100126.19;;;22.12;84.96
15263;BME280;7733;51.554;13.590;2022-09-09T10:45:17;100122.22;;;22.05;83.26
15263;BME280;7733;51.554;13.590;2022-09-09T10:47:56;100115.25;;;22.42;80.44
15263;BME280;7733;51.554;13.590;2022-09-09T10:50:56;100116.47;;;22.51;82.47
15263;BME280;7733;51.554;13.590;2022-09-09T10:56:30;100111.25;;;23.64;79.99
15263;BME280;7733;51.554;13.590;2022-09-09T10:59:13;100105.69;;;23.42;77.47
15263;BME280;7733;51.554;13.590;2022-09-09T11:01:48;100109.78;;;23.34;78.86
15263;BME280;7733;51.554;13.590;2022-09-09T11:04:26;100099.34;;;24.16;76.16
15263;BME280;7733;51.554;13.590;2022-09-09T11:06:56;100106.31;;;23.94;78.34
15263;BME280;7733;51.554;13.590;2022-09-09T11:09:28;100105.81;;;24.37;75.76
15263;BME280;7733;51.554;13.590;2022-09-09T11:11:59;100096.06;;;24.36;76.15
15263;BME280;7733;51.554;13.590;2022-09-09T11:14:44;100099.38;;;23.92;75.95
15263;BME280;7733;51.554;13.590;2022-09-09T11:17:18;100105.91;;;24.71;75.08
15263;BME280;7733;51.554;13.590;2022-09-09T11:19:46;100092.03;;;24.77;74.24
15263;BME280;7733;51.554;13.590;2022-09-09T11:22:23;100094.47;;;24.80;72.36
15263;BME280;7733;51.554;13.590;2022-09-09T11:25:01;100086.94;;;24.96;73.79
15263;BME280;7733;51.554;13.590;2022-09-09T11:30:27;100096.34;;;24.44;68.93
15263;BME280;7733;51.554;13.590;2022-09-09T11:33:48;100081.22;;;25.01;69.95
15263;BME280;7733;51.554;13.590;2022-09-09T11:37:23;100085.22;;;24.84;69.05
15263;BME280;7733;51.554;13.590;2022-09-09T11:42:47;100079.44;;;25.24;67.30
15263;BME280;7733;51.554;13.590;2022-09-09T11:45:26;100071.13;;;25.27;66.85
15263;BME280;7733;51.554;13.590;2022-09-09T11:48:00;100069.00;;;25.64;67.80
15263;BME280;7733;51.554;13.590;2022-09-09T11:50:27;100076.47;;;25.38;65.92
15263;BME280;7733;51.554;13.590;2022-09-09T11:55:39;100067.41;;;24.83;66.89
15263;BME280;7733;51.554;13.590;2022-09-09T12:00:45;100067.47;;;25.28;68.50
15263;BME280;7733;51.554;13.590;2022-09-09T12:06:12;100058.78;;;25.35;69.21
15263;BME280;7733;51.554;13.590;2022-09-09T12:08:43;100060.09;;;24.96;69.32
15263;BME280;7733;51.554;13.590;2022-09-09T12:11:11;100058.38;;;24.95;66.91
15263;BME280;7733;51.554;13.590;2022-09-09T12:13:37;100056.81;;;24.35;68.87
15263;BME280;7733;51.554;13.590;2022-09-09T12:16:03;100064.97;;;24.10;67.01
15263;BME280;7733;51.554;13.590;2022-09-09T12:18:38;100067.09;;;23.93;67.43
15263;BME280;7733;51.554;13.590;2022-09-09T12:21:39;100056.41;;;23.81;68.37
15263;BME280;7733;51.554;13.590;2022-09-09T12:24:18;100067.59;;;23.98;68.42
15263;BME280;7733;51.554;13.590;2022-09-09T12:26:59;100065.97;;;23.85;68.02
15263;BME280;7733;51.554;13.590;2022-09-09T12:32:24;100065.63;;;23.89;70.97
15263;BME280;7733;51.554;13.590;2022-09-09T12:35:03;100067.88;;;23.59;70.96
15263;BME280;7733;51.554;13.590;2022-09-09T12:37:36;100074.22;;;24.06;70.80
15263;BME280;7733;51.554;13.590;2022-09-09T12:40:22;100070.25;;;23.87;71.23
15263;BME280;7733;51.554;13.590;2022-09-09T12:42:48;100065.63;;;23.89;71.59
15263;BME280;7733;51.554;13.590;2022-09-09T12:45:25;100060.81;;;24.06;71.24
15263;BME280;7733;51.554;13.590;2022-09-09T12:47:56;100059.97;;;24.05;72.38
15263;BME280;7733;51.554;13.590;2022-09-09T12:52:57;100063.38;;;23.59;78.50
15263;BME280;7733;51.554;13.590;2022-09-09T12:55:38;100065.22;;;24.07;77.16
15263;BME280;7733;51.554;13.590;2022-09-09T12:58:06;100055.13;;;24.10;81.28
15263;BME280;7733;51.554;13.590;2022-09-09T13:00:34;100046.78;;;24.26;85.23
15263;BME280;7733;51.554;13.590;2022-09-09T13:03:17;100031.59;;;24.38;84.48
15263;BME280;7733;51.554;13.590;2022-09-09T13:05:42;100038.69;;;24.50;81.82
15263;BME280;7733;51.554;13.590;2022-09-09T13:08:11;100043.81;;;24.53;80.22
15263;BME280;7733;51.554;13.590;2022-09-09T13:10:50;100041.00;;;24.54;81.10
15263;BME280;7733;51.554;13.590;2022-09-09T13:13:37;100044.44;;;24.45;81.90
15263;BME280;7733;51.554;13.590;2022-09-09T13:16:07;100044.31;;;24.47;83.04
15263;BME280;7733;51.554;13.590;2022-09-09T13:18:43;100030.16;;;24.45;82.05
15263;BME280;7733;51.554;13.590;2022-09-09T13:21:09;100042.44;;;24.36;81.74
15263;BME280;7733;51.554;13.590;2022-09-09T13:23:37;100036.25;;;24.58;80.08
15263;BME280;7733;51.554;13.590;2022-09-09T13:26:24;100041.00;;;23.84;82.28
15263;BME280;7733;51.554;13.590;2022-09-09T13:28:53;100048.97;;;23.73;83.26
15263;BME280;7733;51.554;13.590;2022-09-09T13:31:30;100038.69;;;24.15;79.12
15263;BME280;7733;51.554;13.590;2022-09-09T13:33:58;100029.19;;;24.46;77.55
15263;BME280;7733;51.554;13.590;2022-09-09T13:36:33;100034.09;;;24.28;71.66
15263;BME280;7733;51.554;13.590;2022-09-09T13:39:03;100024.94;;;24.54;70.19
15263;BME280;7733;51.554;13.590;2022-09-09T13:41:33;100024.66;;;24.11;70.33
15263;BME280;7733;51.554;13.590;2022-09-09T13:44:02;100020.78;;;24.50;69.83
15263;BME280;7733;51.554;13.590;2022-09-09T13:49:00;100010.88;;;24.40;71.46
15263;BME280;7733;51.554;13.590;2022-09-09T13:51:35;100010.91;;;24.62;69.68
15263;BME280;7733;51.554;13.590;2022-09-09T13:54:04;100004.84;;;24.71;68.75
15263;BME280;7733;51.554;13.590;2022-09-09T13:56:33;100006.91;;;24.68;69.07
15263;BME280;7733;51.554;13.590;2022-09-09T13:58:59;100007.88;;;24.89;68.61
15263;BME280;7733;51.554;13.590;2022-09-09T14:01:24;99999.38;;;25.06;67.46
15263;BME280;7733;51.554;13.590;2022-09-09T14:03:50;100001.56;;;25.01;69.25
15263;BME280;7733;51.554;13.590;2022-09-09T14:06:16;100008.63;;;24.91;68.06
15263;BME280;7733;51.554;13.590;2022-09-09T14:08:44;100006.91;;;25.01;65.05
15263;BME280;7733;51.554;13.590;2022-09-09T14:11:13;100013.97;;;24.69;67.91
15263;BME280;7733;51.554;13.590;2022-09-09T14:13:39;100013.00;;;24.81;67.02
15263;BME280;7733;51.554;13.590;2022-09-09T14:16:04;100004.06;;;24.58;68.09
15263;BME280;7733;51.554;13.590;2022-09-09T14:18:30;100017.72;;;24.55;68.45
15263;BME280;7733;51.554;13.590;2022-09-09T14:20:56;100012.75;;;24.73;68.75
15263;BME280;7733;51.554;13.590;2022-09-09T14:23:24;100007.28;;;24.63;68.81
15263;BME280;7733;51.554;13.590;2022-09-09T14:25:49;99998.19;;;24.42;69.57
15263;BME280;7733;51.554;13.590;2022-09-09T14:28:15;99996.53;;;24.52;69.29
15263;BME280;7733;51.554;13.590;2022-09-09T14:30:43;99983.50;;;24.70;67.91
15263;BME280;7733;51.554;13.590;2022-09-09T14:33:13;99988.59;;;24.95;69.09
15263;BME280;7733;51.554;13.590;2022-09-09T14:35:39;99981.66;;;24.81;68.48
15263;BME280;7733;51.554;13.590;2022-09-09T14:38:08;99987.28;;;24.90;66.60